Time;durP1;ratioP1;P1;durP2;ratioP2;P2;SDS_P1;SDS_P2;PMS_P1;PMS_P2;Temp;Humidity;BMP_temperature;BMP_pressure;BME280_temperature;BME280_humidity;BME280_pressure;Samples;Min_cycle;Max_cycle;Signal;HPM_P1;HPM_P2
2022/06/24 00:02:14;;;;;;;8.85;5.68;;;;;;;20.47;100.00;165922.84;4995800;28;20386;-63
2022/06/24 00:04:39;;;;;;;16.65;5.95;;;;;;;20.43;100.00;165913.34;5003806;28;20108;-61
2022/06/24 00:07:16;;;;;;;19.42;6.15;;;;;;;20.39;100.00;165903.84;5007485;28;20425;-61
2022/06/24 00:09:42;;;;;;;9.75;5.75;;;;;;;20.37;100.00;165897.00;5005455;28;20038;-61
2022/06/24 00:12:14;;;;;;;10.27;5.30;;;;;;;20.36;100.00;165894.34;5008878;28;20053;-61
2022/06/24 00:14:41;;;;;;;8.05;5.85;;;;;;;20.34;100.00;165888.88;5008924;28;20033;-62
2022/06/24 00:17:08;;;;;;;11.32;5.53;;;;;;;20.33;100.00;165886.16;5005611;28;20119;-62
2022/06/24 00:19:53;;;;;;;7.93;4.63;;;;;;;20.29;100.00;165878.00;4993793;28;20030;-62
2022/06/24 00:22:19;;;;;;;6.78;4.80;;;;;;;20.22;100.00;165859.00;4998016;28;20382;-62
2022/06/24 00:24:45;;;;;;;7.18;5.05;;;;;;;20.31;100.00;165882.09;5010087;28;20037;-61
2022/06/24 00:27:22;;;;;;;6.32;4.07;;;;;;;20.32;100.00;165883.44;5006605;28;20486;-61
2022/06/24 00:29:49;;;;;;;6.30;3.88;;;;;;;20.32;100.00;165883.44;5006163;28;20347;-62
2022/06/24 00:32:15;;;;;;;4.47;3.60;;;;;;;20.33;100.00;165887.50;4988902;28;20038;-61
2022/06/24 00:34:41;;;;;;;8.77;4.10;;;;;;;20.35;100.00;165891.59;4972643;28;20023;-61
2022/06/24 00:37:29;;;;;;;4.65;4.22;;;;;;;20.36;100.00;165894.34;4979010;28;20050;-61
2022/06/24 00:40:01;;;;;;;6.38;4.18;;;;;;;20.35;100.00;165892.94;4975488;28;20030;-62
2022/06/24 00:42:27;;;;;;;6.53;3.67;;;;;;;20.35;100.00;165891.59;4973743;28;20069;-61
2022/06/24 00:45:08;;;;;;;4.32;3.33;;;;;;;20.37;100.00;165897.00;4978287;28;20033;-62
2022/06/24 00:47:35;;;;;;;4.88;3.22;;;;;;;20.37;100.00;165897.00;4974385;28;20022;-62
2022/06/24 00:50:05;;;;;;;9.20;3.10;;;;;;;20.49;100.00;165929.63;4985006;28;20034;-62
2022/06/24 00:52:37;;;;;;;6.38;3.70;;;;;;;20.57;100.00;165951.34;4991907;28;20026;-62
2022/06/24 00:55:03;;;;;;;13.07;3.00;;;;;;;20.60;100.00;165958.13;4984874;28;20050;-61
2022/06/24 00:57:35;;;;;;;6.05;3.17;;;;;;;20.69;100.00;165981.19;4985152;28;20114;-60
2022/06/24 01:00:01;;;;;;;7.45;3.10;;;;;;;20.73;100.00;165992.13;4972302;28;20455;-61
2022/06/24 01:02:27;;;;;;;9.60;4.75;;;;;;;20.80;100.00;166011.13;4973198;28;20105;-61
2022/06/24 01:05:04;;;;;;;7.50;4.47;;;;;;;20.79;100.00;166008.41;4978167;28;20101;-61
2022/06/24 01:07:29;;;;;;;7.35;4.28;;;;;;;20.71;100.00;165986.63;4977522;28;20030;-61
2022/06/24 01:09:54;;;;;;;8.77;4.78;;;;;;;20.66;100.00;165973.06;4972281;28;20037;-61
2022/06/24 01:12:20;;;;;;;9.68;4.93;;;;;;;20.60;100.00;165959.47;4972280;28;20034;-62
2022/06/24 01:14:45;;;;;;;5.65;3.58;;;;;;;20.58;100.00;165954.06;4974807;28;20474;-60
2022/06/24 01:17:10;;;;;;;7.63;4.35;;;;;;;20.59;100.00;165956.72;4983857;28;20784;-62
2022/06/24 01:19:36;;;;;;;7.40;3.88;;;;;;;20.60;100.00;165959.47;4990551;28;20026;-62
2022/06/24 01:22:01;;;;;;;5.47;4.38;;;;;;;20.54;100.00;165943.19;4979533;28;20050;-62
2022/06/24 01:24:26;;;;;;;7.68;5.30;;;;;;;20.44;100.00;165916.00;4989097;28;20033;-62
2022/06/24 01:26:57;;;;;;;4.82;4.43;;;;;;;20.44;100.00;165917.38;4986677;28;20054;-62
2022/06/24 01:29:23;;;;;;;10.30;4.13;;;;;;;20.48;100.00;165926.91;4990573;28;20034;-62
2022/06/24 01:31:50;;;;;;;7.75;5.18;;;;;;;20.51;100.00;165935.06;4988097;28;20039;-62
2022/06/24 01:34:17;;;;;;;7.43;5.03;;;;;;;20.54;100.00;165941.84;4988981;28;20532;-61
2022/06/24 01:36:43;;;;;;;5.10;4.03;;;;;;;20.53;100.00;165940.44;4988740;28;20129;-61
2022/06/24 01:39:09;;;;;;;5.45;4.05;;;;;;;20.51;100.00;165935.06;4974869;28;20542;-61
2022/06/24 01:41:34;;;;;;;6.28;4.10;;;;;;;20.47;100.00;165924.16;4984057;28;20031;-61
2022/06/24 01:44:01;;;;;;;14.55;6.13;;;;;;;20.41;100.00;165907.88;4987490;28;20481;-61
2022/06/24 01:46:26;;;;;;;12.75;5.60;;;;;;;20.37;100.00;165898.38;4973449;28;20042;-61
2022/06/24 01:48:52;;;;;;;13.60;5.65;;;;;;;20.24;100.00;165864.44;4989650;28;20033;-60
2022/06/24 01:51:19;;;;;;;8.85;6.45;;;;;;;20.18;100.00;165848.16;4970828;28;20046;-61
2022/06/24 01:53:44;;;;;;;8.73;5.95;;;;;;;20.12;100.00;165831.88;4980398;28;20113;-61
2022/06/24 01:56:10;;;;;;;6.85;5.88;;;;;;;19.92;100.00;165780.28;4972297;28;20410;-61
2022/06/24 01:58:35;;;;;;;11.40;5.63;;;;;;;19.65;100.00;165708.34;4991507;28;20062;-61
2022/06/24 02:01:00;;;;;;;12.90;7.07;;;;;;;19.53;100.00;165677.13;4987800;28;20516;-61
2022/06/24 02:03:31;;;;;;;8.25;5.35;;;;;;;19.46;100.00;165658.16;4986712;28;20113;-61
2022/06/24 02:06:02;;;;;;;7.45;6.70;;;;;;;19.59;100.00;165693.41;4989181;28;20042;-61
2022/06/24 02:08:27;;;;;;;15.15;7.35;;;;;;;19.70;100.00;165720.53;4984436;28;20034;-61
2022/06/24 02:13:37;;;;;;;11.73;5.38;;;;;;;19.74;100.00;165731.41;4973780;28;20109;-61
2022/06/24 02:16:04;;;;;;;17.23;8.35;;;;;;;19.80;100.00;165747.69;4973846;28;20422;-61
2022/06/24 02:18:31;;;;;;;8.75;7.15;;;;;;;19.79;100.00;165744.97;4989414;28;20121;-61
2022/06/24 02:20:58;;;;;;;14.35;8.65;;;;;;;19.91;100.00;165776.22;4988608;28;20108;-61
2022/06/24 02:23:24;;;;;;;13.27;8.80;;;;;;;20.01;100.00;165803.38;4975721;28;20106;-61
2022/06/24 02:25:51;;;;;;;19.25;8.90;;;;;;;19.97;100.00;165793.88;4969771;28;20081;-61
2022/06/24 02:28:17;;;;;;;17.55;9.48;;;;;;;19.98;100.00;165795.22;4987748;28;20063;-61
2022/06/24 02:30:44;;;;;;;21.40;11.15;;;;;;;20.00;100.00;165799.28;4988310;28;20043;-61
2022/06/24 02:33:10;;;;;;;13.75;11.63;;;;;;;19.95;100.00;165787.09;4988045;28;20117;-61
2022/06/24 02:35:36;;;;;;;13.32;10.85;;;;;;;20.02;100.00;165804.72;4970561;28;20078;-61
2022/06/24 02:38:01;;;;;;;13.35;11.90;;;;;;;20.03;100.00;165807.44;4976348;28;20426;-61
2022/06/24 02:40:45;;;;;;;21.88;12.80;;;;;;;19.96;100.00;165791.16;4974896;28;20109;-61
2022/06/24 02:43:16;;;;;;;18.92;13.80;;;;;;;19.94;100.00;165784.38;4980307;28;20026;-61
2022/06/24 02:45:43;;;;;;;17.23;14.07;;;;;;;19.85;100.00;165761.28;4974116;28;20121;-61
2022/06/24 02:48:08;;;;;;;21.98;16.77;;;;;;;19.87;100.00;165765.38;4989675;28;20034;-61
2022/06/24 02:50:47;;;;;;;22.65;18.80;;;;;;;19.85;100.00;165761.28;4993250;28;20050;-60
2022/06/24 02:53:16;;;;;;;22.02;17.13;;;;;;;19.71;100.00;165723.25;4992648;28;20092;-60
2022/06/24 02:55:44;;;;;;;21.88;18.42;;;;;;;19.73;100.00;165728.69;4976909;28;20101;-60
2022/06/24 02:58:10;;;;;;;28.75;18.33;;;;;;;19.68;100.00;165716.47;4989536;28;20077;-60
2022/06/24 03:00:36;;;;;;;19.58;17.20;;;;;;;19.65;100.00;165709.69;4985103;28;20066;-59
2022/06/24 03:03:02;;;;;;;21.73;17.55;;;;;;;19.65;100.00;165709.69;4985935;28;20109;-61
2022/06/24 03:05:27;;;;;;;22.90;16.55;;;;;;;19.62;100.00;165701.53;4983017;28;20446;-61
2022/06/24 03:07:53;;;;;;;20.23;18.00;;;;;;;19.71;100.00;165723.25;4991883;28;20023;-61
2022/06/24 03:10:19;;;;;;;18.25;14.38;;;;;;;19.72;100.00;165725.97;4980104;28;20046;-61
2022/06/24 03:12:44;;;;;;;17.30;13.65;;;;;;;19.72;100.00;165727.34;4998795;28;20026;-61
2022/06/24 03:15:10;;;;;;;32.17;15.50;;;;;;;19.76;100.00;165736.84;5007723;28;20520;-60
2022/06/24 03:17:37;;;;;;;14.93;13.43;;;;;;;19.69;100.00;165717.84;5013948;28;20030;-60
2022/06/24 03:20:07;;;;;;;19.02;13.50;;;;;;;19.71;100.00;165723.25;5002047;28;20473;-60
2022/06/24 03:22:33;;;;;;;23.83;16.27;;;;;;;19.68;100.00;165715.13;4981474;28;20096;-60
2022/06/24 03:24:58;;;;;;;17.42;12.68;;;;;;;19.71;100.00;165724.63;4990612;28;20650;-60
2022/06/24 03:27:23;;;;;;;22.40;14.57;;;;;;;19.70;100.00;165720.53;4994193;28;20413;-60
2022/06/24 03:29:49;;;;;;;15.68;13.48;;;;;;;19.72;100.00;165725.97;4988223;28;20031;-61
2022/06/24 03:32:14;;;;;;;14.15;12.75;;;;;;;19.76;100.00;165738.19;4975926;28;20030;-61
2022/06/24 03:34:40;;;;;;;17.67;13.88;;;;;;;19.86;100.00;165762.66;4977269;28;20022;-61
2022/06/24 03:37:05;;;;;;;16.35;13.02;;;;;;;19.95;100.00;165788.44;4990725;28;20074;-61
2022/06/24 03:39:31;;;;;;;15.00;13.35;;;;;;;19.96;100.00;165789.78;4993005;28;20425;-62
2022/06/24 03:41:56;;;;;;;16.00;13.52;;;;;;;20.03;100.00;165807.44;4990062;28;20039;-62
2022/06/24 03:44:21;;;;;;;21.35;14.75;;;;;;;20.02;100.00;165804.72;4974233;28;20023;-62
2022/06/24 03:46:47;;;;;;;15.20;13.00;;;;;;;19.97;100.00;165793.88;4972909;28;20406;-63
2022/06/24 03:49:12;;;;;;;14.75;13.30;;;;;;;19.98;100.00;165795.22;4993189;28;20026;-62
2022/06/24 03:51:38;;;;;;;20.77;11.90;;;;;;;19.93;100.00;165783.00;4973234;28;20055;-62
2022/06/24 03:54:03;;;;;;;18.65;12.20;;;;;;;19.88;100.00;165769.44;4992560;28;20026;-59
2022/06/24 03:56:28;;;;;;;19.70;14.75;;;;;;;19.76;100.00;165738.19;4992382;28;20042;-61
2022/06/24 03:58:54;;;;;;;16.02;14.38;;;;;;;19.74;100.00;165732.75;4988464;28;20030;-62
2022/06/24 04:01:19;;;;;;;18.40;13.27;;;;;;;19.76;100.00;165736.84;4978622;28;20049;-62
2022/06/24 04:03:44;;;;;;;16.95;13.45;;;;;;;19.70;100.00;165721.91;4974159;28;20030;-63
2022/06/24 04:06:10;;;;;;;17.67;14.63;;;;;;;19.72;100.00;165725.97;4977597;28;20046;-63
2022/06/24 04:08:35;;;;;;;20.02;16.38;;;;;;;19.57;100.00;165687.97;4989775;28;20030;-62
2022/06/24 04:11:11;;;;;;;20.00;16.33;;;;;;;19.52;100.00;165674.41;4986486;28;20127;-62
2022/06/24 04:13:36;;;;;;;16.33;14.77;;;;;;;19.45;100.00;165655.44;4973644;28;20038;-63
2022/06/24 04:16:02;;;;;;;16.33;14.73;;;;;;;19.41;100.00;165644.53;4972226;28;20047;-63
2022/06/24 04:18:27;;;;;;;23.73;15.60;;;;;;;19.39;100.00;165639.16;4978482;28;20037;-64
2022/06/24 04:20:52;;;;;;;19.58;17.48;;;;;;;19.37;100.00;165633.72;4984164;28;20046;-64
2022/06/24 04:23:18;;;;;;;17.63;15.82;;;;;;;19.39;100.00;165639.16;4979966;28;20589;-62
2022/06/24 04:25:46;;;;;;;18.70;16.73;;;;;;;19.43;100.00;165649.97;4976498;28;20324;-62
2022/06/24 04:28:11;;;;;;;21.25;14.52;;;;;;;19.42;100.00;165647.25;4985304;28;20045;-62
2022/06/24 04:30:37;;;;;;;18.70;15.70;;;;;;;19.48;100.00;165664.91;4983910;28;20046;-62
2022/06/24 04:33:02;;;;;;;18.05;16.13;;;;;;;19.54;100.00;165678.47;4983461;28;20033;-62
2022/06/24 04:35:27;;;;;;;18.55;16.65;;;;;;;19.47;100.00;165660.88;4991266;28;20042;-62
2022/06/24 04:37:53;;;;;;;19.95;16.58;;;;;;;19.47;100.00;165660.88;4992685;28;20077;-62
2022/06/24 04:40:18;;;;;;;24.38;17.17;;;;;;;19.48;100.00;165663.53;4991343;28;20046;-62
2022/06/24 04:42:46;;;;;;;17.77;15.93;;;;;;;19.51;100.00;165671.69;4992763;28;20336;-62
2022/06/24 04:45:11;;;;;;;17.67;14.63;;;;;;;19.48;100.00;165663.53;4991404;28;20049;-62
2022/06/24 04:47:37;;;;;;;18.52;16.85;;;;;;;19.44;100.00;165652.72;4992611;28;20027;-62
2022/06/24 04:50:02;;;;;;;18.27;16.58;;;;;;;19.52;100.00;165674.41;4991330;28;20046;-62
2022/06/24 04:52:27;;;;;;;18.90;16.85;;;;;;;19.59;100.00;165421.50;4992428;28;20110;-62
2022/06/24 04:54:53;;;;;;;19.48;17.58;;;;;;;19.64;100.00;165705.63;4990699;28;20030;-62
2022/06/24 04:57:18;;;;;;;17.25;15.55;;;;;;;19.66;100.00;165712.41;4992558;28;20023;-61
2022/06/24 04:59:43;;;;;;;17.83;14.35;;;;;;;19.68;100.00;165716.47;4991319;28;20034;-58
2022/06/24 05:02:09;;;;;;;16.58;15.10;;;;;;;19.53;100.00;165677.13;4990848;28;20030;-60
2022/06/24 05:04:35;;;;;;;18.55;14.10;;;;;;;19.68;100.00;165715.13;4991117;28;20045;-60
2022/06/24 05:07:01;;;;;;;14.18;12.77;;;;;;;19.65;100.00;165709.69;4987664;28;20031;-59
2022/06/24 05:09:27;;;;;;;15.63;14.18;;;;;;;19.68;100.00;165715.13;4985121;28;20058;-60
2022/06/24 05:11:52;;;;;;;19.52;14.38;;;;;;;19.58;100.00;165690.69;4983750;28;20122;-59
2022/06/24 05:14:18;;;;;;;15.32;13.63;;;;;;;19.58;100.00;165689.34;4981283;28;20031;-59
2022/06/24 05:16:44;;;;;;;17.35;15.63;;;;;;;19.46;100.00;165658.16;4975946;28;20465;-62
2022/06/24 05:19:10;;;;;;;16.67;15.05;;;;;;;19.47;100.00;165660.88;4974450;28;20085;-63
2022/06/24 05:21:35;;;;;;;16.15;14.65;;;;;;;19.52;100.00;164112.13;4990863;28;20221;-63
2022/06/24 05:24:01;;;;;;;14.57;12.45;;;;;;;19.48;100.00;158855.66;4984684;28;20019;-63
2022/06/24 05:26:26;;;;;;;14.02;12.73;;;;;;;19.56;100.00;158876.44;4970939;28;20518;-62
2022/06/24 05:28:52;;;;;;;15.55;14.18;;;;;;;19.56;100.00;162314.47;4972417;28;20109;-63
2022/06/24 05:31:17;;;;;;;14.25;12.40;;;;;;;19.56;100.00;163334.09;4970722;28;20417;-63
2022/06/24 05:33:42;;;;;;;18.50;13.38;;;;;;;19.59;100.00;162309.91;4972316;28;20497;-63
2022/06/24 05:36:08;;;;;;;16.20;10.98;;;;;;;19.63;100.00;165704.25;4970925;28;20035;-63
2022/06/24 05:38:33;;;;;;;13.35;10.52;;;;;;;19.63;100.00;165704.25;4971990;28;20212;-63
2022/06/24 05:40:59;;;;;;;11.90;10.80;;;;;;;19.48;100.00;165663.53;4970658;28;20406;-62
2022/06/24 05:43:24;;;;;;;10.18;9.35;;;;;;;19.48;100.00;165663.53;4972311;28;20039;-62
2022/06/24 05:45:50;;;;;;;10.00;9.07;;;;;;;19.46;100.00;165659.47;4970599;28;20490;-62
2022/06/24 05:48:15;;;;;;;12.98;9.90;;;;;;;19.45;100.00;165656.75;4972143;28;20351;-62
2022/06/24 05:50:40;;;;;;;8.45;7.10;;;;;;;19.48;100.00;165663.53;4970886;28;20057;-63
2022/06/24 05:55:55;;;;;;;11.40;7.53;;;;;;;19.28;100.00;165612.00;4977085;28;20505;-62
2022/06/24 05:58:20;;;;;;;6.88;6.28;;;;;;;19.34;100.00;165626.94;4987372;28;20600;-62
2022/06/24 06:00:45;;;;;;;7.47;6.63;;;;;;;19.37;100.00;165633.72;4977379;28;20038;-62
2022/06/24 06:03:11;;;;;;;7.22;6.57;;;;;;;19.40;100.00;165641.88;4971919;28;20038;-63
2022/06/24 06:05:36;;;;;;;6.53;5.55;;;;;;;19.38;100.00;165637.78;4973131;28;20069;-63
2022/06/24 06:08:01;;;;;;;6.43;5.82;;;;;;;19.37;100.00;165633.72;4971597;28;20045;-63
2022/06/24 06:10:27;;;;;;;10.00;5.75;;;;;;;19.39;100.00;165639.16;4970453;28;20056;-62
2022/06/24 06:12:52;;;;;;;8.40;4.90;;;;;;;19.35;100.00;165629.66;4971268;28;20023;-62
2022/06/24 06:15:18;;;;;;;6.20;5.10;;;;;;;19.32;100.00;165621.50;4970268;28;20097;-62
2022/06/24 06:17:43;;;;;;;6.97;5.43;;;;;;;19.28;100.00;165612.00;4971903;28;20027;-63
2022/06/24 06:20:09;;;;;;;9.95;5.18;;;;;;;19.19;100.00;165587.56;4971606;28;20039;-62
2022/06/24 06:22:34;;;;;;;5.20;4.80;;;;;;;19.14;100.00;165575.34;4991001;28;20026;-62
2022/06/24 06:24:59;;;;;;;8.65;4.65;;;;;;;19.09;100.00;165561.81;4982959;28;20367;-62
2022/06/24 06:27:25;;;;;;;7.13;5.88;;;;;;;19.05;100.00;165549.59;4983381;28;20112;-62
2022/06/24 06:29:50;;;;;;;8.57;7.32;;;;;;;18.99;100.00;165534.66;4989095;28;20022;-62
2022/06/24 06:32:15;;;;;;;8.52;7.60;;;;;;;18.94;100.00;165522.50;4981306;28;20092;-62
2022/06/24 06:34:41;;;;;;;7.25;6.63;;;;;;;18.95;100.00;165525.16;4981130;28;20089;-62
2022/06/24 06:37:06;;;;;;;8.13;5.97;;;;;;;18.94;100.00;165522.50;4981086;28;20465;-62
2022/06/24 06:39:32;;;;;;;12.88;6.63;;;;;;;18.98;100.00;165533.31;4981207;28;20030;-62
2022/06/24 06:41:57;;;;;;;12.20;6.28;;;;;;;18.97;100.00;165530.59;4979816;28;20133;-62
2022/06/24 06:44:22;;;;;;;6.00;5.47;;;;;;;18.97;100.00;165530.59;4981068;28;20022;-61
2022/06/24 06:46:49;;;;;;;8.50;6.50;;;;;;;19.00;100.00;165537.38;4979470;28;20043;-61
2022/06/24 06:49:14;;;;;;;8.20;5.25;;;;;;;19.06;100.00;165552.31;4979188;28;20043;-61
2022/06/24 06:51:39;;;;;;;7.50;5.25;;;;;;;19.11;100.00;165565.84;4977753;28;20562;-61
2022/06/24 06:54:05;;;;;;;4.65;4.22;;;;;;;19.12;100.00;165568.59;4979841;28;20241;-60
2022/06/24 06:56:30;;;;;;;5.68;5.13;;;;;;;18.99;100.00;165536.03;4977470;28;20043;-60
2022/06/24 06:58:56;;;;;;;10.75;5.15;;;;;;;18.95;100.00;165525.16;4969360;28;20085;-61
2022/06/24 07:01:21;;;;;;;5.55;4.95;;;;;;;18.82;100.00;165489.84;4974035;28;20034;-60
2022/06/24 07:03:46;;;;;;;5.38;4.88;;;;;;;18.80;100.00;165484.47;4989861;28;20026;-61
2022/06/24 07:06:12;;;;;;;6.70;5.82;;;;;;;18.74;100.00;165468.16;4989306;28;20042;-61
2022/06/24 07:08:37;;;;;;;6.70;5.55;;;;;;;18.68;100.00;165453.28;4990437;28;20034;-61
2022/06/24 07:11:04;;;;;;;18.02;5.93;;;;;;;18.54;100.00;165416.63;4984021;28;20042;-57
2022/06/24 07:13:29;;;;;;;8.65;5.80;;;;;;;18.43;100.00;165386.81;4979887;28;20034;-57
2022/06/24 07:15:55;;;;;;;6.35;4.80;;;;;;;18.26;100.00;165343.44;4988558;28;20378;-57
2022/06/24 07:18:20;;;;;;;10.88;5.22;;;;;;;18.17;100.00;165320.34;4990367;28;20026;-57
2022/06/24 07:20:45;;;;;;;7.43;5.10;;;;;;;18.11;100.00;165304.06;4989109;28;20038;-57
2022/06/24 07:23:11;;;;;;;12.63;6.88;;;;;;;18.06;100.00;165291.88;4990002;28;20026;-57
2022/06/24 07:25:36;;;;;;;9.75;5.57;;;;;;;18.07;100.00;165294.59;4992196;28;20054;-57
2022/06/24 07:28:02;;;;;;;10.35;7.05;;;;;;;18.07;100.00;165293.25;4994062;28;20077;-57
2022/06/24 07:30:28;;;;;;;8.90;7.05;;;;;;;18.07;100.00;165293.25;4991196;28;20099;-57
2022/06/24 07:32:54;;;;;;;11.45;6.97;;;;;;;18.07;100.00;165293.25;4993003;28;20113;-58
2022/06/24 07:35:19;;;;;;;13.25;6.00;;;;;;;18.03;100.00;165283.75;4992694;28;20061;-57
2022/06/24 07:37:45;;;;;;;10.07;6.55;;;;;;;18.02;100.00;165281.06;4992347;28;20037;-57
2022/06/24 07:40:10;;;;;;;7.38;5.95;;;;;;;17.91;100.00;164896.13;4981944;28;20140;-58
2022/06/24 07:42:36;;;;;;;8.93;6.68;;;;;;;17.92;100.00;160263.97;4982785;28;20022;-58
2022/06/24 07:45:01;;;;;;;9.40;7.75;;;;;;;17.83;100.00;157011.50;4982526;28;20018;-58
2022/06/24 07:47:26;;;;;;;10.13;7.10;;;;;;;17.82;100.00;152012.94;4983008;28;20015;-57
2022/06/24 07:49:52;;;;;;;8.48;7.35;;;;;;;17.80;100.00;147374.38;4981786;28;20478;-58
2022/06/24 07:52:17;;;;;;;7.30;6.60;;;;;;;17.86;100.00;142404.09;4983747;28;20022;-58
2022/06/24 07:54:42;;;;;;;6.97;6.40;;;;;;;17.90;100.00;142413.41;4982246;28;20026;-58
2022/06/24 07:57:08;;;;;;;7.93;6.20;;;;;;;17.82;100.00;149874.88;5022140;28;20690;-58
2022/06/24 07:59:36;;;;;;;25.27;7.70;;;;;;;17.76;100.00;153070.44;5021052;28;20434;-58
2022/06/24 08:02:06;;;;;;;17.65;6.93;;;;;;;17.70;100.00;152340.91;5016589;28;20125;-58
2022/06/24 08:04:31;;;;;;;10.18;5.90;;;;;;;17.67;100.00;149839.34;5021263;28;20037;-57
2022/06/24 08:06:58;;;;;;;18.58;7.75;;;;;;;17.59;100.00;149107.13;5029865;28;20065;-58
2022/06/24 08:09:26;;;;;;;8.15;7.25;;;;;;;17.55;100.00;148028.78;5032744;28;20044;-58
2022/06/24 08:11:52;;;;;;;10.95;8.07;;;;;;;17.51;100.00;143036.38;5030761;28;20133;-58
2022/06/24 08:14:18;;;;;;;19.02;13.35;;;;;;;17.49;100.00;133795.38;5032301;28;20022;-57
2022/06/24 08:16:44;;;;;;;15.80;11.20;;;;;;;17.58;100.00;129203.28;5031240;28;20072;-57
2022/06/24 08:19:10;;;;;;;12.00;10.57;;;;;;;17.58;100.00;130266.00;5010307;28;20032;-57
2022/06/24 08:21:36;;;;;;;11.55;9.90;;;;;;;17.64;100.00;130632.38;4997180;28;20042;-58
2022/06/24 08:24:02;;;;;;;14.88;10.57;;;;;;;17.61;100.00;131336.44;5011805;28;20026;-58
2022/06/24 08:26:27;;;;;;;10.73;9.55;;;;;;;17.60;100.00;129915.63;5010336;28;20058;-57
2022/06/24 08:28:53;;;;;;;15.65;11.68;;;;;;;17.60;100.00;128851.91;5012187;28;20026;-58
2022/06/24 08:31:18;;;;;;;13.80;11.02;;;;;;;17.59;100.00;127431.97;5010793;28;20088;-57
2022/06/24 08:33:44;;;;;;;10.90;8.98;;;;;;;17.45;100.00;127758.28;5012400;28;20026;-58
2022/06/24 08:36:09;;;;;;;8.52;7.72;;;;;;;17.48;100.00;123160.38;5010444;28;20042;-57
2022/06/24 08:38:35;;;;;;;9.63;7.05;;;;;;;17.53;100.00;122107.53;5012468;28;20033;-57
2022/06/24 08:41:02;;;;;;;9.98;7.20;;;;;;;17.58;100.00;121764.50;5010838;28;20049;-57
2022/06/24 08:43:32;;;;;;;9.45;8.18;;;;;;;17.57;100.00;120700.00;5012180;28;20079;-58
2022/06/24 08:45:59;;;;;;;12.13;10.35;;;;;;;17.70;100.00;118601.78;5011011;28;20420;-58
2022/06/24 08:48:31;;;;;;;11.18;10.07;;;;;;;17.72;100.00;116131.38;5012382;28;20038;-57
2022/06/24 08:50:57;;;;;;;11.95;10.10;;;;;;;17.82;100.00;112262.03;5010247;28;20045;-58
2022/06/24 08:53:26;;;;;;;12.48;9.55;;;;;;;17.79;100.00;108372.38;5011851;28;20021;-57
2022/06/24 08:55:51;;;;;;;9.65;8.75;;;;;;;17.97;100.00;104875.84;5010392;28;20046;-58
2022/06/24 08:58:19;;;;;;;12.27;10.50;;;;;;;18.14;100.00;101024.53;5011740;28;20022;-58
2022/06/24 09:00:44;;;;;;;10.67;9.60;;;;;;;18.38;100.00;97186.59;5010484;28;20361;-57
2022/06/24 09:03:11;;;;;;;10.80;9.52;;;;;;;18.55;100.00;95099.09;5011659;28;20129;-57
2022/06/24 09:05:36;;;;;;;11.43;9.65;;;;;;;18.53;100.00;97914.78;5010184;28;20045;-57
2022/06/24 09:08:13;;;;;;;9.18;8.38;;;;;;;18.63;100.00;104984.34;5012016;28;20506;-58
2022/06/24 09:10:40;;;;;;;10.13;9.30;;;;;;;18.58;100.00;113103.13;5010601;28;20353;-57
2022/06/24 09:13:06;;;;;;;9.70;8.70;;;;;;;18.79;100.00;114202.34;5011210;28;20164;-58
2022/06/24 09:15:32;;;;;;;10.57;9.57;;;;;;;18.96;100.00;115295.09;5010028;28;20516;-57
2022/06/24 09:17:59;;;;;;;10.30;9.13;;;;;;;19.11;100.00;118510.28;5010949;28;20026;-58
2022/06/24 09:20:26;;;;;;;14.18;8.98;;;;;;;19.23;100.00;127051.31;5018936;28;20054;-57
2022/06/24 09:23:08;;;;;;;9.67;8.67;;;;;;;19.26;100.00;141650.72;5031078;28;20029;-58
2022/06/24 09:26:00;;;;;;;9.50;7.30;;;;;;;19.37;100.00;153816.75;5029524;28;20496;-57
2022/06/24 09:28:30;;;;;;;13.20;8.98;;;;;;;19.39;100.00;161947.34;5031067;28;20425;-57
2022/06/24 09:31:14;;;;;;;13.27;8.88;;;;;;;19.45;100.00;164478.50;5029484;28;20061;-58
2022/06/24 09:33:41;;;;;;;10.55;9.52;;;;;;;19.56;100.00;158518.25;5030804;28;20148;-57
2022/06/24 09:36:10;;;;;;;10.07;7.80;;;;;;;19.69;100.00;160752.69;5028957;28;20428;-59
2022/06/24 09:38:55;;;;;;;11.00;8.55;;;;;;;20.03;100.00;160130.69;5030938;28;20060;-59
2022/06/24 09:41:22;;;;;;;8.13;7.43;;;;;;;20.13;100.00;165834.59;5029634;28;20042;-59
2022/06/24 09:43:47;;;;;;;8.38;7.57;;;;;;;20.26;100.00;165869.88;5031060;28;20017;-59
2022/06/24 09:46:23;;;;;;;12.20;9.02;;;;;;;20.30;100.00;165879.38;5029425;28;20408;-59
2022/06/24 09:48:57;;;;;;;8.07;7.32;;;;;;;20.33;100.00;165887.50;5030555;28;20038;-59
2022/06/24 09:51:22;;;;;;;9.77;8.43;;;;;;;20.33;100.00;165886.16;5029277;28;20037;-59
2022/06/24 09:53:49;;;;;;;7.53;6.75;;;;;;;20.41;100.00;165907.88;5030777;28;20025;-59
2022/06/24 09:56:14;;;;;;;7.28;6.57;;;;;;;20.35;100.00;165891.59;5001107;28;20136;-59
2022/06/24 10:00:40;;;;;;;8.82;6.78;;;;;;;20.41;100.00;165907.88;4994091;28;20113;-59
2022/06/24 10:01:28;;;;;;;9.60;6.60;;;;;;;20.42;100.00;165910.63;5009357;28;20528;-59
2022/06/24 10:03:53;;;;;;;8.98;6.30;;;;;;;20.41;100.00;165907.88;5010581;28;20036;-59
2022/06/24 10:06:21;;;;;;;6.93;5.93;;;;;;;20.50;100.00;165930.94;5009450;28;20121;-59
2022/06/24 10:08:47;;;;;;;9.05;7.15;;;;;;;20.54;100.00;165941.84;5011029;28;20416;-59
2022/06/24 10:11:13;;;;;;;6.88;6.20;;;;;;;20.54;100.00;165943.19;5009110;28;20038;-59
2022/06/24 10:13:39;;;;;;;8.45;7.07;;;;;;;20.68;100.00;165978.47;5001148;28;20481;-59
2022/06/24 10:16:06;;;;;;;7.13;6.53;;;;;;;20.81;100.00;166012.47;4989498;28;20049;-59
2022/06/24 10:18:37;;;;;;;7.70;6.90;;;;;;;20.76;100.00;166000.25;4997659;28;20032;-58
2022/06/24 10:21:04;;;;;;;7.63;6.82;;;;;;;20.81;100.00;166013.84;5004821;28;20461;-58
2022/06/24 10:23:48;;;;;;;7.77;6.27;;;;;;;20.78;100.00;166005.69;5010962;28;20017;-58
2022/06/24 10:26:13;;;;;;;11.77;6.90;;;;;;;20.73;100.00;165992.13;5000650;28;20123;-58
2022/06/24 10:29:13;;;;;;;8.43;6.07;;;;;;;20.63;100.00;165964.91;4989968;28;20125;-58
2022/06/24 10:31:41;;;;;;;5.95;4.72;;;;;;;20.42;100.00;165911.94;5004102;28;20045;-58
2022/06/24 10:34:30;;;;;;;7.38;5.80;;;;;;;20.44;100.00;165916.00;4993325;28;20027;-58
2022/06/24 10:37:06;;;;;;;7.22;5.70;;;;;;;20.55;100.00;165945.91;5006360;28;20044;-58
2022/06/24 10:39:34;;;;;;;7.00;5.57;;;;;;;20.34;100.00;165888.88;5010764;28;20063;-58
2022/06/24 10:42:14;;;;;;;6.43;5.82;;;;;;;20.62;100.00;165963.56;5007900;28;20096;-58
2022/06/24 10:45:05;;;;;;;6.28;5.45;;;;;;;20.38;100.00;165899.72;5006743;28;20065;-58
2022/06/24 10:47:33;;;;;;;7.50;6.22;;;;;;;20.26;100.00;165869.88;4970230;28;20039;-58
2022/06/24 10:50:01;;;;;;;10.70;7.43;;;;;;;20.36;100.00;165894.34;4971615;28;20039;-58
2022/06/24 10:52:48;;;;;;;7.40;6.57;;;;;;;20.55;100.00;165945.91;4990899;28;20529;-59
2022/06/24 10:55:16;;;;;;;8.48;6.85;;;;;;;20.74;100.00;165996.19;4985671;28;20046;-58
2022/06/24 10:57:45;;;;;;;;;;;;;;;20.94;100.00;166047.75;4971839;28;20035;-58
2022/06/24 11:00:16;;;;;;;15.15;7.35;;;;;;;21.04;100.00;166074.94;4981354;28;19917;-58
2022/06/24 11:02:44;;;;;;;17.10;7.40;;;;;;;20.89;100.00;166035.53;4994651;28;20088;-58
2022/06/24 11:05:24;;;;;;;6.65;5.97;;;;;;;21.04;100.00;166073.53;4991462;28;20121;-58
2022/06/24 11:07:49;;;;;;;9.32;6.18;;;;;;;21.20;100.00;166117.00;4992886;28;20019;-60
2022/06/24 11:10:15;;;;;;;8.38;5.75;;;;;;;21.58;100.00;166214.84;4979862;28;20149;-58
2022/06/24 11:12:40;;;;;;;6.20;5.60;;;;;;;21.68;100.00;166242.03;4978293;28;20033;-58
2022/06/24 11:15:06;;;;;;;6.60;5.72;;;;;;;21.84;100.00;166285.50;4981857;28;20513;-58
2022/06/24 11:17:31;;;;;;;7.68;5.38;;;;;;;22.00;100.00;166326.28;4984004;28;20377;-59